createdAt,value
2023-01-29T00:00:43.549Z,35.21
2023-01-29T00:02:14.904Z,35.12
2023-01-29T00:03:46.333Z,35.00
2023-01-29T00:05:27.425Z,35.33
2023-01-29T00:06:59.478Z,34.57
2023-01-29T00:08:30.956Z,34.68
2023-01-29T00:10:07.111Z,34.90
2023-01-29T00:11:48.477Z,34.90
2023-01-29T00:13:19.753Z,34.84
2023-01-29T00:14:51.028Z,35.25
2023-01-29T00:16:22.433Z,34.85
2023-01-29T00:17:53.956Z,35.93
2023-01-29T00:19:25.386Z,35.80
2023-01-29T00:20:58.039Z,35.60
2023-01-29T00:22:29.513Z,35.29
2023-01-29T00:24:00.714Z,36.10
2023-01-29T00:25:31.974Z,36.16
2023-01-29T00:27:03.121Z,35.69
2023-01-29T00:28:34.502Z,36.22
2023-01-29T00:30:05.957Z,35.88
2023-01-29T00:31:37.405Z,35.89
2023-01-29T00:33:08.933Z,35.77
2023-01-29T00:34:40.117Z,35.76
2023-01-29T00:36:16.537Z,35.42
2023-01-29T00:37:47.947Z,35.81
2023-01-29T00:39:19.425Z,35.49
2023-01-29T00:40:50.996Z,35.15
2023-01-29T00:42:22.190Z,35.71
2023-01-29T00:43:53.326Z,35.73
2023-01-29T00:45:24.582Z,35.31
2023-01-29T00:46:55.982Z,34.81
2023-01-29T00:48:27.245Z,34.90
2023-01-29T00:49:59.011Z,35.59
2023-01-29T00:51:30.377Z,36.06
2023-01-29T00:53:01.764Z,36.72
2023-01-29T00:54:33.271Z,35.91
2023-01-29T00:56:04.990Z,36.14
2023-01-29T00:57:36.574Z,36.29
2023-01-29T00:59:07.832Z,37.08
2023-01-29T01:00:44.356Z,36.91
2023-01-29T01:02:15.853Z,36.96
2023-01-29T01:03:47.237Z,37.14
2023-01-29T01:05:18.496Z,36.88
2023-01-29T01:06:50.276Z,36.30
2023-01-29T01:08:21.823Z,36.32
2023-01-29T01:09:53.103Z,36.34
2023-01-29T01:11:24.458Z,36.40
2023-01-29T01:12:55.813Z,36.97
2023-01-29T01:14:27.080Z,37.42
2023-01-29T01:15:58.348Z,37.08
2023-01-29T01:17:29.722Z,36.47
2023-01-29T01:19:01.301Z,35.79
2023-01-29T01:20:32.793Z,34.28
2023-01-29T01:22:04.346Z,35.38
2023-01-29T01:23:35.878Z,35.99
2023-01-29T01:25:12.100Z,35.13
2023-01-29T01:26:43.898Z,33.58
2023-01-29T01:28:15.108Z,35.43
2023-01-29T01:29:46.456Z,35.33
2023-01-29T01:31:17.709Z,35.72
2023-01-29T01:32:48.935Z,36.22
2023-01-29T01:34:20.203Z,37.32
2023-01-29T01:35:51.881Z,36.51
2023-01-29T01:37:23.140Z,35.76
2023-01-29T01:38:54.800Z,36.08
2023-01-29T01:40:25.963Z,37.04
2023-01-29T01:41:57.145Z,36.93
2023-01-29T01:43:28.424Z,38.14
2023-01-29T01:44:59.754Z,37.13
2023-01-29T01:46:31.318Z,37.55
2023-01-29T01:48:02.616Z,37.23
2023-01-29T01:49:33.903Z,36.74
2023-01-29T01:51:05.186Z,37.54
2023-01-29T01:52:36.346Z,37.61
2023-01-29T01:54:07.600Z,36.23
2023-01-29T01:55:38.893Z,37.10
2023-01-29T01:57:15.504Z,37.70
2023-01-29T01:58:46.877Z,36.68
2023-01-29T02:00:18.582Z,36.38
2023-01-29T02:01:50.046Z,36.30
2023-01-29T02:03:21.685Z,36.65
2023-01-29T02:04:53.155Z,37.43
2023-01-29T02:06:24.616Z,37.17
2023-01-29T02:07:56.008Z,37.86
2023-01-29T02:09:27.398Z,37.84
2023-01-29T02:10:58.966Z,37.29
2023-01-29T02:12:30.749Z,38.00
2023-01-29T02:14:02.054Z,38.18
2023-01-29T02:15:33.405Z,37.78
2023-01-29T02:17:04.967Z,37.62
2023-01-29T02:18:36.886Z,38.32
2023-01-29T02:20:08.911Z,37.12
2023-01-29T02:21:40.579Z,37.59
2023-01-29T02:23:11.992Z,38.34
2023-01-29T02:24:43.534Z,37.46
2023-01-29T02:26:15.249Z,37.75
2023-01-29T02:27:46.539Z,38.18
2023-01-29T02:29:17.795Z,38.00
2023-01-29T02:30:49.520Z,37.34
2023-01-29T02:32:20.934Z,36.71
2023-01-29T02:33:52.252Z,36.66
2023-01-29T02:35:23.450Z,38.13
2023-01-29T02:36:54.988Z,37.54
2023-01-29T02:38:26.389Z,37.45
2023-01-29T02:39:57.778Z,37.87
2023-01-29T02:41:29.396Z,37.94
2023-01-29T02:43:05.817Z,37.38
2023-01-29T02:44:37.088Z,37.57
2023-01-29T02:46:08.480Z,37.31
2023-01-29T02:47:39.962Z,37.53
2023-01-29T02:49:11.521Z,36.70
2023-01-29T02:50:42.794Z,37.25
2023-01-29T02:52:14.060Z,37.10
2023-01-29T02:53:45.446Z,37.84
2023-01-29T02:55:16.923Z,37.63
2023-01-29T02:56:48.282Z,38.60
2023-01-29T02:58:19.547Z,37.79
2023-01-29T02:59:50.821Z,38.10
2023-01-29T03:01:22.224Z,38.20
2023-01-29T03:02:53.371Z,38.83
2023-01-29T03:04:24.723Z,38.15
2023-01-29T03:05:56.262Z,37.57
2023-01-29T03:07:27.450Z,38.00
2023-01-29T03:08:59.666Z,39.21
2023-01-29T03:10:31.118Z,38.51
2023-01-29T03:12:02.260Z,40.09
2023-01-29T03:13:33.522Z,39.49
2023-01-29T03:15:04.872Z,39.39
2023-01-29T03:16:36.255Z,39.18
2023-01-29T03:18:07.625Z,39.97
2023-01-29T03:19:38.829Z,39.19
2023-01-29T03:21:10.304Z,38.76
2023-01-29T03:22:41.511Z,39.84
2023-01-29T03:24:12.705Z,39.71
2023-01-29T03:25:43.859Z,39.67
2023-01-29T03:27:15.206Z,40.56
2023-01-29T03:28:46.389Z,40.68
2023-01-29T03:30:18.211Z,40.84
2023-01-29T03:31:49.760Z,40.55
2023-01-29T03:33:21.137Z,41.28
2023-01-29T03:34:52.676Z,40.17
2023-01-29T03:36:24.296Z,41.49
2023-01-29T03:37:55.868Z,40.96
2023-01-29T03:39:27.713Z,40.55
2023-01-29T03:40:59.327Z,41.33
2023-01-29T03:42:31.088Z,40.25
2023-01-29T03:44:02.439Z,40.90
2023-01-29T03:45:33.567Z,40.06
2023-01-29T03:47:04.991Z,41.46
2023-01-29T03:48:36.347Z,41.92
2023-01-29T03:50:12.849Z,43.34
2023-01-29T03:51:44.234Z,42.80
2023-01-29T03:53:15.552Z,44.46
2023-01-29T03:54:46.943Z,43.23
2023-01-29T03:56:18.301Z,44.12
2023-01-29T03:57:50.044Z,43.84
2023-01-29T03:59:21.501Z,44.57
2023-01-29T04:00:52.794Z,44.94
2023-01-29T04:02:23.986Z,44.25
2023-01-29T04:03:55.532Z,42.66
2023-01-29T04:05:26.965Z,44.01
2023-01-29T04:06:59.094Z,43.24
2023-01-29T04:08:30.940Z,44.33
2023-01-29T04:10:02.309Z,42.58
2023-01-29T04:11:33.579Z,44.31
2023-01-29T04:13:04.997Z,44.57
2023-01-29T04:14:36.567Z,42.36
2023-01-29T04:16:07.735Z,40.14
2023-01-29T04:17:39.182Z,40.98
2023-01-29T04:19:10.305Z,43.22
2023-01-29T04:20:41.663Z,39.88
2023-01-29T04:22:13.277Z,38.22
2023-01-29T04:23:44.775Z,38.14
2023-01-29T04:25:16.155Z,37.64
2023-01-29T04:26:47.475Z,44.09
2023-01-29T04:28:19.246Z,41.95
2023-01-29T04:29:50.718Z,43.01
2023-01-29T04:31:27.398Z,44.40
2023-01-29T04:32:58.968Z,46.23
2023-01-29T04:34:31.215Z,40.80
2023-01-29T04:36:02.750Z,44.55
2023-01-29T04:37:34.099Z,45.04
2023-01-29T04:39:05.539Z,44.92
2023-01-29T04:40:36.924Z,43.85
2023-01-29T04:42:08.477Z,42.91
2023-01-29T04:43:39.693Z,44.84
2023-01-29T04:45:11.054Z,44.86
2023-01-29T04:46:42.388Z,45.92
2023-01-29T04:48:13.545Z,43.58
2023-01-29T04:49:44.751Z,44.10
2023-01-29T04:51:16.255Z,43.58
2023-01-29T04:52:47.604Z,44.62
2023-01-29T04:54:18.989Z,44.34
2023-01-29T04:55:50.190Z,44.01
2023-01-29T04:57:21.422Z,44.84
2023-01-29T04:58:52.582Z,43.62
2023-01-29T05:00:23.825Z,44.34
2023-01-29T05:01:55.445Z,44.54
2023-01-29T05:03:26.683Z,46.07
2023-01-29T05:04:58.183Z,46.23
2023-01-29T05:06:29.429Z,44.52
2023-01-29T05:08:01.000Z,44.53
2023-01-29T05:09:32.585Z,43.88
2023-01-29T05:11:04.252Z,44.27
2023-01-29T05:12:35.575Z,45.04
2023-01-29T05:14:07.201Z,44.32
2023-01-29T05:15:38.537Z,44.06
2023-01-29T05:17:11.082Z,40.89
2023-01-29T05:18:42.730Z,42.28
2023-01-29T05:20:14.445Z,43.12
2023-01-29T05:21:46.043Z,41.94
2023-01-29T05:23:17.736Z,40.87
2023-01-29T05:24:49.161Z,41.46
2023-01-29T05:26:20.453Z,41.44
2023-01-29T05:27:51.802Z,41.62
2023-01-29T05:29:23.653Z,39.91
2023-01-29T05:30:54.842Z,40.01
2023-01-29T05:32:26.265Z,38.09
2023-01-29T05:33:57.456Z,39.18
2023-01-29T05:35:28.641Z,36.06
2023-01-29T05:36:59.913Z,40.37
2023-01-29T05:38:31.287Z,37.99
2023-01-29T05:40:02.508Z,41.34
2023-01-29T05:41:33.750Z,42.44
2023-01-29T05:43:05.539Z,41.37
2023-01-29T05:44:37.038Z,42.59
2023-01-29T05:46:08.623Z,41.80
2023-01-29T05:47:40.442Z,39.74
2023-01-29T05:49:16.843Z,37.06
2023-01-29T05:50:47.996Z,36.01
2023-01-29T05:52:19.279Z,36.07
2023-01-29T05:53:50.568Z,38.47
2023-01-29T05:55:21.765Z,36.34
2023-01-29T05:56:54.202Z,38.63
2023-01-29T05:58:25.487Z,38.65
2023-01-29T05:59:56.936Z,37.30
2023-01-29T06:01:28.227Z,35.49
2023-01-29T06:02:59.731Z,35.59
2023-01-29T06:04:31.061Z,32.93
2023-01-29T06:06:02.441Z,32.50
2023-01-29T06:07:33.748Z,35.53
2023-01-29T06:09:05.144Z,36.50
2023-01-29T06:10:36.571Z,36.09
2023-01-29T06:12:07.855Z,36.11
2023-01-29T06:13:39.051Z,35.13
2023-01-29T06:15:10.461Z,37.13
2023-01-29T06:16:41.764Z,36.70
2023-01-29T06:18:13.030Z,36.82
2023-01-29T06:19:44.394Z,38.26
2023-01-29T06:21:16.960Z,37.64
2023-01-29T06:22:49.975Z,37.34
2023-01-29T06:24:21.306Z,36.06
2023-01-29T06:25:52.881Z,38.00
2023-01-29T06:27:24.165Z,38.25
2023-01-29T06:28:55.553Z,37.21
2023-01-29T06:30:26.724Z,36.63
2023-01-29T06:31:58.003Z,36.45
2023-01-29T06:33:29.296Z,35.96
2023-01-29T06:35:00.680Z,36.45
2023-01-29T06:36:32.117Z,37.70
2023-01-29T06:38:03.718Z,37.89
2023-01-29T06:39:35.300Z,37.31
2023-01-29T06:41:06.865Z,36.13
2023-01-29T06:42:38.156Z,36.56
2023-01-29T06:44:09.826Z,36.45
2023-01-29T06:45:41.200Z,35.60
2023-01-29T06:47:12.456Z,36.13
2023-01-29T06:48:43.666Z,36.19
2023-01-29T06:50:15.530Z,35.62
2023-01-29T06:51:47.057Z,35.44
2023-01-29T06:53:18.299Z,36.65
2023-01-29T06:54:49.484Z,35.99
2023-01-29T06:56:20.764Z,35.11
2023-01-29T06:57:52.205Z,36.62
2023-01-29T06:59:23.944Z,35.95
2023-01-29T07:00:55.459Z,35.90
2023-01-29T07:02:26.917Z,35.12
2023-01-29T07:03:58.192Z,35.59
2023-01-29T07:05:29.486Z,35.93
2023-01-29T07:07:01.150Z,36.94
2023-01-29T07:08:32.493Z,36.80
2023-01-29T07:10:03.792Z,37.77
2023-01-29T07:11:35.091Z,35.70
2023-01-29T07:13:06.378Z,41.38
2023-01-29T07:14:37.874Z,37.93
2023-01-29T07:16:09.280Z,37.97
2023-01-29T07:17:40.431Z,36.15
2023-01-29T07:19:11.677Z,35.60
2023-01-29T07:20:43.268Z,34.67
2023-01-29T07:22:14.610Z,35.70
2023-01-29T07:23:51.093Z,34.48
2023-01-29T07:25:22.231Z,35.77
2023-01-29T07:26:53.634Z,34.70
2023-01-29T07:28:24.890Z,34.13
2023-01-29T07:29:56.201Z,33.01
2023-01-29T07:31:27.689Z,34.21
2023-01-29T07:32:59.197Z,34.26
2023-01-29T07:34:30.343Z,34.93
2023-01-29T07:36:01.734Z,35.90
2023-01-29T07:37:33.010Z,34.42
2023-01-29T07:39:04.325Z,34.91
2023-01-29T07:40:58.310Z,33.89
2023-01-29T07:42:29.746Z,35.52
2023-01-29T07:44:01.708Z,34.90
2023-01-29T07:45:33.493Z,34.55
2023-01-29T07:47:05.504Z,34.36
2023-01-29T07:48:36.851Z,34.13
2023-01-29T07:50:08.149Z,30.10
2023-01-29T07:51:39.547Z,29.60
2023-01-29T07:53:15.854Z,32.78
2023-01-29T07:54:47.220Z,33.90
2023-01-29T07:56:18.516Z,33.43
2023-01-29T07:57:49.685Z,33.66
2023-01-29T07:59:20.996Z,32.56
2023-01-29T08:00:52.216Z,33.34
2023-01-29T08:02:23.560Z,30.96
2023-01-29T08:03:54.913Z,34.15
2023-01-29T08:05:26.212Z,35.38
2023-01-29T08:06:57.394Z,32.87
2023-01-29T08:08:28.787Z,33.12
2023-01-29T08:10:00.125Z,33.89
2023-01-29T08:11:31.312Z,33.90
2023-01-29T08:13:02.493Z,34.35
2023-01-29T08:14:33.684Z,32.32
2023-01-29T08:16:05.052Z,31.95
2023-01-29T08:17:43.347Z,33.70
2023-01-29T08:19:20.683Z,31.69
2023-01-29T08:20:52.900Z,33.94
2023-01-29T08:22:24.194Z,33.88
2023-01-29T08:23:55.695Z,33.78
2023-01-29T08:25:27.519Z,34.26
2023-01-29T08:26:58.915Z,33.42
2023-01-29T08:28:30.200Z,34.76
2023-01-29T08:30:01.715Z,34.44
2023-01-29T08:31:33.003Z,33.63
2023-01-29T08:33:04.246Z,33.28
2023-01-29T08:34:35.610Z,32.58
2023-01-29T08:36:07.008Z,33.32
2023-01-29T08:37:38.459Z,34.96
2023-01-29T08:39:09.734Z,34.74
2023-01-29T08:40:41.240Z,35.59
2023-01-29T08:42:12.626Z,34.69
2023-01-29T08:43:44.417Z,34.37
2023-01-29T08:45:15.642Z,34.13
2023-01-29T08:46:47.129Z,31.23
2023-01-29T08:48:18.630Z,34.13
2023-01-29T08:49:49.937Z,34.42
2023-01-29T08:51:21.268Z,34.12
2023-01-29T08:52:52.519Z,34.79
2023-01-29T08:54:23.721Z,33.15
2023-01-29T08:55:55.005Z,35.43
2023-01-29T08:57:26.346Z,35.43
2023-01-29T08:58:58.411Z,34.47
2023-01-29T09:00:30.392Z,35.54
2023-01-29T09:02:01.709Z,34.66
2023-01-29T09:03:33.075Z,34.58
2023-01-29T09:05:05.067Z,35.99
2023-01-29T09:06:36.615Z,33.65
2023-01-29T09:08:07.761Z,34.00
2023-01-29T09:09:39.083Z,34.09
2023-01-29T09:11:10.375Z,33.91
2023-01-29T09:12:41.700Z,34.71
2023-01-29T09:14:12.888Z,32.63
2023-01-29T09:15:44.206Z,32.27
2023-01-29T09:17:15.731Z,27.03
2023-01-29T09:18:47.076Z,33.03
2023-01-29T09:20:18.395Z,33.60
2023-01-29T09:21:50.000Z,34.34
2023-01-29T09:23:21.293Z,33.54
2023-01-29T09:24:52.503Z,34.84
2023-01-29T09:26:24.126Z,32.18
2023-01-29T09:27:55.369Z,32.29
2023-01-29T09:29:26.654Z,33.14
2023-01-29T09:30:58.130Z,35.09
2023-01-29T09:32:52.725Z,37.12
2023-01-29T09:34:25.174Z,35.82
2023-01-29T09:35:57.151Z,33.17
2023-01-29T09:37:43.766Z,35.11
2023-01-29T09:39:40.661Z,34.57
2023-01-29T09:43:18.649Z,36.03
2023-01-29T09:44:50.515Z,34.40
2023-01-29T09:46:22.212Z,33.92
2023-01-29T09:47:54.501Z,34.59
2023-01-29T09:49:48.471Z,31.17
2023-01-29T09:51:20.498Z,31.55
2023-01-29T09:52:51.956Z,35.78
2023-01-29T09:54:23.827Z,36.88
2023-01-29T09:55:55.659Z,34.97
2023-01-29T09:57:27.386Z,34.78
2023-01-29T09:59:01.569Z,34.72
2023-01-29T10:00:33.436Z,36.08
2023-01-29T10:02:10.053Z,34.78
2023-01-29T10:03:42.044Z,33.41
2023-01-29T10:05:14.306Z,31.92
2023-01-29T10:06:46.514Z,33.62
2023-01-29T10:08:17.971Z,35.39
2023-01-29T10:11:44.184Z,34.39
2023-01-29T10:13:32.318Z,33.87
2023-01-29T10:15:03.877Z,32.78
2023-01-29T10:17:14.978Z,33.13
2023-01-29T10:18:46.862Z,33.11
2023-01-29T10:20:18.569Z,35.67
2023-01-29T10:21:50.427Z,34.35
2023-01-29T10:25:15.618Z,32.54
2023-01-29T10:26:47.373Z,34.52
2023-01-29T10:28:18.889Z,34.60
2023-01-29T10:30:21.253Z,33.54
2023-01-29T10:31:53.405Z,33.44
2023-01-29T10:33:24.785Z,35.02
2023-01-29T10:34:56.313Z,32.01
2023-01-29T10:36:53.357Z,34.89
2023-01-29T10:38:25.097Z,34.03
2023-01-29T10:39:57.318Z,32.34
2023-01-29T10:41:28.637Z,29.91
2023-01-29T10:43:41.231Z,33.48
2023-01-29T10:45:13.669Z,32.63
2023-01-29T10:46:45.352Z,28.84
2023-01-29T10:48:16.934Z,30.22
2023-01-29T10:50:16.369Z,33.18
2023-01-29T10:51:49.664Z,33.20
2023-01-29T10:53:50.494Z,30.58
2023-01-29T10:55:22.114Z,30.98
2023-01-29T10:56:53.924Z,34.14
2023-01-29T10:58:25.607Z,34.64
2023-01-29T10:59:56.922Z,32.21
2023-01-29T11:01:28.287Z,29.70
2023-01-29T11:02:59.796Z,33.88
2023-01-29T11:04:31.144Z,32.67
2023-01-29T11:06:02.350Z,30.85
2023-01-29T11:07:33.708Z,33.34
2023-01-29T11:09:04.970Z,29.44
2023-01-29T11:10:36.464Z,28.14
2023-01-29T11:12:12.854Z,32.46
2023-01-29T11:13:44.466Z,32.06
2023-01-29T11:15:15.793Z,33.33
2023-01-29T11:16:47.213Z,32.69
2023-01-29T11:18:18.808Z,34.93
2023-01-29T11:19:50.104Z,33.68
2023-01-29T11:21:22.536Z,33.78
2023-01-29T11:22:54.277Z,32.23
2023-01-29T11:24:25.791Z,33.52
2023-01-29T11:25:57.296Z,33.96
2023-01-29T11:27:28.784Z,35.57
2023-01-29T11:29:00.597Z,33.38
2023-01-29T11:30:32.050Z,35.75
2023-01-29T11:32:08.503Z,35.03
2023-01-29T11:33:40.049Z,36.01
2023-01-29T11:35:11.808Z,35.64
2023-01-29T11:36:43.040Z,36.09
2023-01-29T11:38:14.374Z,35.24
2023-01-29T11:39:45.600Z,31.08
2023-01-29T11:41:17.015Z,33.03
2023-01-29T11:42:48.552Z,34.31
2023-01-29T11:44:19.826Z,33.84
2023-01-29T11:45:56.285Z,30.39
2023-01-29T11:47:27.619Z,34.76
2023-01-29T11:49:05.845Z,33.91
2023-01-29T11:50:45.774Z,33.31
2023-01-29T11:52:16.956Z,32.92
2023-01-29T11:53:53.236Z,32.96
2023-01-29T11:55:24.676Z,33.49
2023-01-29T11:56:56.131Z,32.32
2023-01-29T11:58:27.435Z,33.94
2023-01-29T11:59:58.784Z,34.56
2023-01-29T12:01:30.085Z,34.82
2023-01-29T12:03:01.427Z,32.53
2023-01-29T12:04:32.668Z,33.60
2023-01-29T12:06:04.064Z,33.58
2023-01-29T12:07:35.400Z,31.71
2023-01-29T12:09:06.644Z,31.37
2023-01-29T12:10:38.249Z,30.18
2023-01-29T12:12:09.640Z,31.27
2023-01-29T12:13:42.209Z,32.72
2023-01-29T12:15:13.602Z,32.22
2023-01-29T12:16:44.972Z,30.57
2023-01-29T12:18:16.191Z,32.18
2023-01-29T12:19:47.784Z,32.42
2023-01-29T12:21:19.180Z,32.73
2023-01-29T12:22:50.888Z,32.80
2023-01-29T12:24:22.371Z,33.33
2023-01-29T12:25:54.064Z,30.31
2023-01-29T12:27:25.326Z,29.14
2023-01-29T12:28:56.850Z,31.51
2023-01-29T12:30:28.353Z,31.77
2023-01-29T12:31:59.826Z,32.56
2023-01-29T12:35:27.317Z,31.96
2023-01-29T12:36:58.558Z,32.38
2023-01-29T12:38:29.800Z,32.59
2023-01-29T12:40:01.009Z,32.51
2023-01-29T12:41:32.421Z,31.53
2023-01-29T12:43:03.806Z,31.49
2023-01-29T12:44:40.310Z,32.12
2023-01-29T12:46:11.545Z,32.04
2023-01-29T12:47:42.801Z,32.07
2023-01-29T12:49:14.229Z,29.32
2023-01-29T12:50:45.549Z,32.31
2023-01-29T12:52:16.863Z,32.07
2023-01-29T12:53:48.205Z,31.02
2023-01-29T12:55:19.590Z,32.22
2023-01-29T12:56:50.830Z,32.76
2023-01-29T12:58:22.126Z,29.67
2023-01-29T12:59:53.587Z,31.05
2023-01-29T13:01:24.884Z,30.20
2023-01-29T13:02:56.327Z,30.14
2023-01-29T13:04:28.313Z,28.40
2023-01-29T13:05:59.722Z,30.81
2023-01-29T13:07:31.215Z,31.54
2023-01-29T13:09:02.503Z,30.35
2023-01-29T13:10:33.664Z,30.13
2023-01-29T13:12:33.237Z,29.59
2023-01-29T13:14:05.601Z,29.92
2023-01-29T13:15:37.061Z,29.27
2023-01-29T13:17:08.424Z,28.27
2023-01-29T13:18:39.943Z,27.33
2023-01-29T13:20:11.293Z,26.22
2023-01-29T13:21:42.603Z,26.89
2023-01-29T13:23:13.959Z,28.79
2023-01-29T13:24:55.501Z,28.62
2023-01-29T13:26:34.864Z,26.09
2023-01-29T13:28:06.235Z,27.76
2023-01-29T13:29:37.834Z,24.12
2023-01-29T13:31:09.168Z,26.87
2023-01-29T13:32:40.820Z,26.94
2023-01-29T13:34:12.012Z,27.34
2023-01-29T13:35:43.688Z,26.98
2023-01-29T13:37:14.861Z,27.60
2023-01-29T13:38:46.095Z,26.24
2023-01-29T13:40:17.500Z,26.67
2023-01-29T13:41:48.910Z,25.97
2023-01-29T13:43:20.645Z,28.16
2023-01-29T13:44:52.182Z,28.17
2023-01-29T13:46:23.545Z,27.35
2023-01-29T13:47:54.891Z,26.49
2023-01-29T13:49:26.204Z,26.94
2023-01-29T13:50:58.026Z,25.06
2023-01-29T13:52:29.458Z,25.41
2023-01-29T13:54:00.771Z,23.40
2023-01-29T13:55:32.354Z,23.53
2023-01-29T13:57:03.682Z,20.90
2023-01-29T13:58:35.001Z,20.46
2023-01-29T14:00:06.391Z,16.74
2023-01-29T14:01:37.888Z,17.16
2023-01-29T14:03:09.021Z,17.28
2023-01-29T14:04:40.358Z,22.28
2023-01-29T14:06:11.720Z,18.84
2023-01-29T14:07:43.023Z,21.91
2023-01-29T14:09:14.739Z,24.69
2023-01-29T14:10:46.266Z,23.27
2023-01-29T14:12:17.587Z,20.31
2023-01-29T14:13:48.891Z,20.64
2023-01-29T14:15:25.493Z,24.41
2023-01-29T14:16:57.241Z,23.16
2023-01-29T14:18:30.075Z,21.68
2023-01-29T14:20:01.585Z,22.16
2023-01-29T14:21:32.928Z,21.54
2023-01-29T14:23:04.281Z,21.66
2023-01-29T14:24:36.193Z,20.06
2023-01-29T14:26:07.792Z,16.73
2023-01-29T14:27:39.233Z,20.18
2023-01-29T14:29:10.932Z,22.78
2023-01-29T14:30:43.049Z,22.87
2023-01-29T14:32:14.317Z,23.11
2023-01-29T14:33:45.496Z,23.87
2023-01-29T14:35:17.226Z,23.78
2023-01-29T14:36:48.785Z,20.43
2023-01-29T14:38:20.193Z,17.68
2023-01-29T14:39:51.434Z,21.16
2023-01-29T14:41:22.756Z,20.82
2023-01-29T14:42:54.052Z,18.96
2023-01-29T14:44:25.591Z,19.43
2023-01-29T14:45:57.116Z,20.44
2023-01-29T14:47:28.421Z,21.19
2023-01-29T14:49:00.187Z,18.78
2023-01-29T14:50:31.849Z,19.62
2023-01-29T14:52:03.100Z,20.66
2023-01-29T14:53:34.454Z,18.96
2023-01-29T14:55:05.911Z,19.49
2023-01-29T14:56:37.550Z,20.39
2023-01-29T14:58:08.860Z,16.98
2023-01-29T14:59:40.061Z,19.97
2023-01-29T15:01:12.223Z,20.36
2023-01-29T15:02:43.751Z,19.72
2023-01-29T15:04:15.235Z,19.31
2023-01-29T15:05:46.455Z,19.02
2023-01-29T15:07:18.035Z,17.44
2023-01-29T15:08:49.395Z,19.58
2023-01-29T15:10:22.762Z,19.42
2023-01-29T15:11:54.632Z,19.77
2023-01-29T15:13:26.007Z,18.35
2023-01-29T15:14:57.506Z,17.75
2023-01-29T15:16:29.021Z,16.43
2023-01-29T15:18:10.454Z,17.25
2023-01-29T15:19:41.810Z,18.05
2023-01-29T15:21:13.215Z,18.24
2023-01-29T15:23:05.091Z,18.58
2023-01-29T15:24:36.383Z,16.82
2023-01-29T15:26:07.753Z,17.37
2023-01-29T15:27:40.503Z,16.61
2023-01-29T15:29:13.598Z,15.82
2023-01-29T15:30:45.240Z,13.87
2023-01-29T15:32:21.764Z,13.87
2023-01-29T15:33:53.855Z,12.98
2023-01-29T15:35:25.207Z,11.98
2023-01-29T15:36:56.720Z,14.47
2023-01-29T15:38:33.133Z,14.89
2023-01-29T15:40:04.327Z,15.28
2023-01-29T15:41:35.747Z,15.74
2023-01-29T15:43:06.963Z,12.86
2023-01-29T15:44:38.305Z,12.88
2023-01-29T15:46:09.621Z,15.55
2023-01-29T15:47:40.999Z,14.94
2023-01-29T15:49:12.779Z,12.20
2023-01-29T15:50:44.376Z,9.66
2023-01-29T15:52:16.035Z,11.50
2023-01-29T15:53:47.450Z,15.39
2023-01-29T15:55:19.325Z,15.19
2023-01-29T15:56:51.302Z,13.82
2023-01-29T15:58:22.621Z,15.64
2023-01-29T15:59:54.155Z,11.23
2023-01-29T16:01:35.442Z,15.36
2023-01-29T16:03:12.259Z,14.44
2023-01-29T16:04:43.451Z,14.77
2023-01-29T16:06:14.844Z,15.29
2023-01-29T16:07:56.582Z,14.76
2023-01-29T16:09:28.056Z,15.19
2023-01-29T16:10:59.507Z,15.23
2023-01-29T16:12:30.889Z,15.58
2023-01-29T16:14:02.127Z,15.77
2023-01-29T16:15:43.799Z,16.22
2023-01-29T16:17:15.396Z,15.81
2023-01-29T16:18:58.907Z,16.52
2023-01-29T16:20:30.633Z,14.04
2023-01-29T16:22:01.939Z,14.65
2023-01-29T16:23:33.353Z,14.12
2023-01-29T16:25:04.564Z,15.87
2023-01-29T16:26:35.869Z,12.49
2023-01-29T16:28:07.212Z,14.75
2023-01-29T16:29:38.646Z,16.13
2023-01-29T16:31:10.007Z,17.84
2023-01-29T16:32:41.584Z,15.38
2023-01-29T16:34:12.809Z,16.67
2023-01-29T16:35:44.192Z,17.44
2023-01-29T16:37:15.838Z,13.25
2023-01-29T16:38:47.588Z,17.68
2023-01-29T16:40:18.869Z,18.35
2023-01-29T16:41:50.533Z,18.90
2023-01-29T16:43:22.835Z,18.24
2023-01-29T16:44:54.375Z,17.14
2023-01-29T16:46:25.606Z,16.90
2023-01-29T16:47:56.923Z,17.38
2023-01-29T16:49:28.163Z,20.17
2023-01-29T16:51:14.672Z,19.78
2023-01-29T16:52:51.396Z,18.77
2023-01-29T16:54:22.739Z,18.02
2023-01-29T16:55:54.227Z,17.74
2023-01-29T16:57:25.504Z,20.33
2023-01-29T16:58:56.933Z,18.94
2023-01-29T17:00:28.724Z,20.38
2023-01-29T17:02:00.035Z,18.95
2023-01-29T17:03:31.364Z,19.96
2023-01-29T17:05:02.672Z,18.11
2023-01-29T17:06:34.319Z,18.54
2023-01-29T17:08:05.662Z,17.49
2023-01-29T17:09:37.170Z,15.03
2023-01-29T17:11:08.632Z,19.88
2023-01-29T17:12:40.200Z,19.86
2023-01-29T17:14:11.558Z,17.86
2023-01-29T17:15:43.026Z,18.14
2023-01-29T17:17:15.041Z,19.63
2023-01-29T17:18:46.600Z,21.30
2023-01-29T17:20:18.065Z,18.18
2023-01-29T17:21:49.531Z,19.67
2023-01-29T17:23:21.103Z,20.41
2023-01-29T17:24:52.398Z,17.29
2023-01-29T17:26:23.888Z,20.16
2023-01-29T17:27:55.255Z,19.01
2023-01-29T17:29:26.686Z,17.25
2023-01-29T17:31:06.198Z,21.18
2023-01-29T17:32:44.686Z,22.74
2023-01-29T17:34:16.855Z,20.05
2023-01-29T17:35:48.232Z,20.87
2023-01-29T17:37:19.942Z,21.13
2023-01-29T17:38:51.674Z,19.63
2023-01-29T17:41:00.824Z,21.95
2023-01-29T17:42:37.244Z,22.01
2023-01-29T17:44:37.203Z,21.12
2023-01-29T17:46:08.561Z,21.76
2023-01-29T17:47:39.830Z,20.28
2023-01-29T17:49:11.033Z,21.17
2023-01-29T17:50:42.372Z,20.58
2023-01-29T17:52:13.728Z,21.43
2023-01-29T17:53:50.177Z,21.47
2023-01-29T17:55:21.397Z,21.94
2023-01-29T17:56:53.048Z,20.16
2023-01-29T17:58:29.321Z,21.29
2023-01-29T18:00:00.745Z,20.98
2023-01-29T18:01:36.973Z,17.82
2023-01-29T18:03:08.244Z,20.07
2023-01-29T18:04:39.503Z,21.32
2023-01-29T18:06:15.816Z,21.31
2023-01-29T18:07:46.994Z,21.35
2023-01-29T18:09:18.435Z,21.69
2023-01-29T18:10:49.750Z,21.32
2023-01-29T18:12:20.936Z,20.82
2023-01-29T18:13:52.189Z,18.75
2023-01-29T18:15:23.780Z,19.59
2023-01-29T18:16:57.323Z,21.33
2023-01-29T18:18:29.334Z,20.63
2023-01-29T18:20:00.660Z,21.94
2023-01-29T18:21:32.066Z,20.87
2023-01-29T18:23:03.259Z,21.36
2023-01-29T18:24:34.688Z,21.35
2023-01-29T18:26:06.185Z,20.46
2023-01-29T18:27:37.467Z,20.98
2023-01-29T18:29:08.739Z,21.37
2023-01-29T18:30:40.210Z,20.80
2023-01-29T18:32:11.495Z,20.87
2023-01-29T18:33:43.108Z,18.61
2023-01-29T18:35:36.719Z,20.57
2023-01-29T18:37:08.571Z,22.85
2023-01-29T18:38:40.026Z,22.70
2023-01-29T18:40:17.321Z,19.79
2023-01-29T18:41:49.606Z,22.27
2023-01-29T18:43:21.982Z,22.62
2023-01-29T18:44:53.751Z,20.99
2023-01-29T18:48:32.085Z,22.25
2023-01-29T18:50:03.928Z,21.96
2023-01-29T18:51:35.993Z,20.68
2023-01-29T18:53:07.653Z,21.64
2023-01-29T18:54:39.173Z,21.17
2023-01-29T18:56:10.848Z,18.00
2023-01-29T18:58:27.426Z,18.87
2023-01-29T19:00:06.561Z,21.12
2023-01-29T19:01:38.681Z,20.51
2023-01-29T19:03:11.190Z,21.15
2023-01-29T19:04:42.885Z,20.62
2023-01-29T19:06:14.271Z,19.16
2023-01-29T19:07:45.707Z,15.92
2023-01-29T19:09:22.042Z,20.72
2023-01-29T19:11:16.665Z,17.44
2023-01-29T19:12:48.717Z,17.91
2023-01-29T19:14:25.212Z,18.27
2023-01-29T19:16:09.908Z,19.75
2023-01-29T19:17:41.240Z,17.04
2023-01-29T19:19:12.619Z,18.99
2023-01-29T19:20:44.044Z,18.76
2023-01-29T19:22:41.852Z,18.72
2023-01-29T19:24:13.492Z,19.18
2023-01-29T19:25:45.541Z,18.79
2023-01-29T19:27:17.405Z,19.02
2023-01-29T19:28:49.076Z,18.31
2023-01-29T19:30:20.415Z,19.18
2023-01-29T19:32:32.687Z,19.38
2023-01-29T19:34:04.060Z,17.17
2023-01-29T19:35:35.536Z,16.95
2023-01-29T19:37:06.773Z,18.77
2023-01-29T19:38:59.489Z,19.39
2023-01-29T19:40:30.732Z,16.25
2023-01-29T19:42:02.222Z,19.72
2023-01-29T19:43:33.769Z,19.54
2023-01-29T19:45:05.876Z,18.94
2023-01-29T19:46:37.433Z,17.05
2023-01-29T19:48:33.908Z,18.25
2023-01-29T19:50:05.319Z,16.25
2023-01-29T19:52:11.478Z,17.43
2023-01-29T19:53:43.565Z,19.38
2023-01-29T19:55:15.773Z,20.54
2023-01-29T19:56:47.840Z,15.08
2023-01-29T19:58:19.911Z,16.59
2023-01-29T19:59:56.675Z,16.52
2023-01-29T20:01:33.404Z,16.31
2023-01-29T20:03:15.039Z,18.45
2023-01-29T20:04:47.064Z,18.33